Time;durP1;ratioP1;P1;durP2;ratioP2;P2;SDS_P1;SDS_P2;PMS_P1;PMS_P2;Temp;Humidity;BMP_temperature;BMP_pressure;BME280_temperature;BME280_humidity;BME280_pressure;Samples;Min_cycle;Max_cycle;Signal;HPM_P1;HPM_P2
2021/09/03 00:00:23;;;;;;;78.05;24.98;;;14.10;99.90;;;;;;5013516;28;20018;-80
2021/09/03 00:02:49;;;;;;;61.03;25.02;;;14.20;99.90;;;;;;4994993;28;20025;-80
2021/09/03 00:05:17;;;;;;;87.72;26.38;;;14.20;99.90;;;;;;4994285;28;20032;-80
2021/09/03 00:07:43;;;;;;;84.03;24.77;;;14.20;99.90;;;;;;4994311;28;20026;-81
2021/09/03 00:10:12;;;;;;;80.57;25.65;;;14.30;99.90;;;;;;4994684;28;20053;-80
2021/09/03 00:12:39;;;;;;;71.72;24.20;;;14.30;99.90;;;;;;4994784;28;20564;-80
2021/09/03 00:15:07;;;;;;;77.75;24.27;;;14.30;99.90;;;;;;4994145;28;20033;-81
2021/09/03 00:17:33;;;;;;;86.78;24.77;;;14.30;99.90;;;;;;4993991;28;20152;-82
2021/09/03 00:19:58;;;;;;;74.10;25.75;;;14.40;99.90;;;;;;4994405;28;20050;-80
2021/09/03 00:22:24;;;;;;;70.43;25.17;;;14.40;99.90;;;;;;5012022;28;20045;-80
2021/09/03 00:24:49;;;;;;;71.00;26.35;;;14.40;99.90;;;;;;4994206;28;20089;-81
2021/09/03 00:27:15;;;;;;;78.20;27.35;;;14.40;99.90;;;;;;5011545;28;20018;-83
2021/09/03 00:29:41;;;;;;;70.40;28.38;;;14.50;99.90;;;;;;5011923;28;20056;-80
2021/09/03 00:32:07;;;;;;;92.10;31.88;;;14.50;99.90;;;;;;5011803;28;20501;-80
2021/09/03 00:34:32;;;;;;;84.82;28.27;;;14.50;99.90;;;;;;4994060;28;20034;-80
2021/09/03 00:36:58;;;;;;;88.57;31.23;;;14.60;99.90;;;;;;5012040;28;20095;-82
2021/09/03 00:39:24;;;;;;;68.45;27.23;;;14.60;99.90;;;;;;4993745;28;20037;-82
2021/09/03 00:41:50;;;;;;;67.60;27.20;;;14.60;99.90;;;;;;5011755;28;20080;-83
2021/09/03 00:44:15;;;;;;;70.82;26.38;;;14.60;99.90;;;;;;4994247;28;20022;-80
2021/09/03 00:46:41;;;;;;;52.35;24.63;;;14.60;99.90;;;;;;4993991;28;20033;-81
2021/09/03 00:49:07;;;;;;;51.47;24.75;;;14.60;99.90;;;;;;5011411;28;20045;-80
2021/09/03 00:51:33;;;;;;;48.75;24.00;;;14.60;99.90;;;;;;4994216;28;20398;-81
2021/09/03 00:53:58;;;;;;;46.20;22.75;;;14.50;99.90;;;;;;5011527;28;20025;-81
2021/09/03 00:56:25;;;;;;;49.58;23.05;;;14.60;99.90;;;;;;4994027;28;20022;-81
2021/09/03 00:58:50;;;;;;;52.78;23.52;;;14.60;99.90;;;;;;5013240;28;20104;-81
2021/09/03 01:01:17;;;;;;;53.20;22.13;;;14.50;99.90;;;;;;5015381;28;20054;-82
2021/09/03 01:03:44;;;;;;;48.55;20.55;;;14.50;99.90;;;;;;4997548;28;20100;-82
2021/09/03 01:06:09;;;;;;;44.25;21.45;;;14.50;99.90;;;;;;4997626;28;20491;-82
2021/09/03 01:08:35;;;;;;;38.10;19.35;;;14.70;99.90;;;;;;4997338;28;20034;-82
2021/09/03 01:11:01;;;;;;;41.55;19.83;;;14.60;99.90;;;;;;5015247;28;20502;-81
2021/09/03 01:13:27;;;;;;;39.33;19.75;;;14.50;99.90;;;;;;4997654;28;20414;-81
2021/09/03 01:15:52;;;;;;;37.72;21.13;;;14.50;99.90;;;;;;4997113;28;20030;-81
2021/09/03 01:18:18;;;;;;;49.53;22.08;;;14.40;99.90;;;;;;4997804;28;20018;-81
2021/09/03 01:20:45;;;;;;;46.03;21.55;;;14.40;99.90;;;;;;5014768;28;20546;-80
2021/09/03 01:23:10;;;;;;;37.85;19.67;;;14.40;99.90;;;;;;4997363;28;20483;-82
2021/09/03 01:25:36;;;;;;;53.67;22.30;;;14.30;99.90;;;;;;4996987;28;20063;-80
2021/09/03 01:28:02;;;;;;;46.45;21.88;;;14.30;99.90;;;;;;5014901;28;20037;-79
2021/09/03 01:30:27;;;;;;;42.38;20.92;;;14.20;99.90;;;;;;4996804;28;20029;-81
2021/09/03 01:32:53;;;;;;;49.28;21.67;;;14.10;99.90;;;;;;5014816;28;20038;-81
2021/09/03 01:35:18;;;;;;;46.80;19.33;;;14.10;99.90;;;;;;5014323;28;20493;-80
2021/09/03 01:37:44;;;;;;;41.85;18.90;;;14.10;99.90;;;;;;4997209;28;20022;-81
2021/09/03 01:40:11;;;;;;;52.17;21.05;;;14.00;99.90;;;;;;5014089;28;20018;-80
2021/09/03 01:42:37;;;;;;;38.10;18.55;;;14.00;99.90;;;;;;4997088;28;20052;-80
2021/09/03 01:45:04;;;;;;;40.17;17.63;;;14.00;99.90;;;;;;5013827;28;20026;-82
2021/09/03 01:47:30;;;;;;;53.47;19.20;;;14.00;99.90;;;;;;5014507;28;20026;-80
2021/09/03 01:49:56;;;;;;;40.80;18.67;;;14.10;99.90;;;;;;4996671;28;20033;-80
2021/09/03 01:52:21;;;;;;;50.90;18.48;;;14.00;99.90;;;;;;4996889;28;20026;-80
2021/09/03 01:54:48;;;;;;;47.55;18.50;;;14.00;99.90;;;;;;4996547;28;20041;-81
2021/09/03 01:57:13;;;;;;;46.67;19.00;;;14.00;99.90;;;;;;5014287;28;20509;-82
2021/09/03 01:59:39;;;;;;;50.08;19.17;;;14.10;99.90;;;;;;5014208;28;20053;-82
2021/09/03 02:02:04;;;;;;;53.60;20.27;;;14.10;99.90;;;;;;4996399;28;20080;-81
2021/09/03 02:04:30;;;;;;;53.40;20.05;;;14.10;99.90;;;;;;5014042;28;20034;-82
2021/09/03 02:06:55;;;;;;;51.83;18.83;;;14.20;99.90;;;;;;5014185;28;20088;-80
2021/09/03 02:09:21;;;;;;;45.13;18.77;;;14.20;99.90;;;;;;5014155;28;20026;-83
2021/09/03 02:11:47;;;;;;;49.63;19.52;;;14.20;99.90;;;;;;5013853;28;20038;-80
2021/09/03 02:14:13;;;;;;;48.22;18.55;;;14.30;99.90;;;;;;4996220;28;20041;-81
2021/09/03 02:16:39;;;;;;;48.25;17.25;;;14.20;99.90;;;;;;5013888;28;20030;-81
2021/09/03 02:19:04;;;;;;;44.30;17.45;;;14.10;99.90;;;;;;5013990;28;20065;-82
2021/09/03 02:21:30;;;;;;;38.65;17.63;;;14.30;99.90;;;;;;4995960;28;20022;-81
2021/09/03 02:23:55;;;;;;;33.45;15.48;;;14.30;99.90;;;;;;5013681;28;20030;-82
2021/09/03 02:26:21;;;;;;;45.70;15.10;;;14.20;99.90;;;;;;4996161;28;20030;-81
2021/09/03 02:28:46;;;;;;;43.47;15.68;;;14.20;99.90;;;;;;4996407;28;20030;-83
2021/09/03 02:31:12;;;;;;;47.30;14.73;;;14.30;99.90;;;;;;5013465;28;20108;-80
2021/09/03 02:33:37;;;;;;;41.78;14.05;;;14.30;99.90;;;;;;5013567;28;20026;-81
2021/09/03 02:36:03;;;;;;;31.92;11.73;;;14.30;99.90;;;;;;5012017;28;20144;-83
2021/09/03 02:38:29;;;;;;;46.67;13.02;;;14.30;99.90;;;;;;5013564;28;20060;-80
2021/09/03 02:40:54;;;;;;;30.38;11.20;;;14.30;99.90;;;;;;5013549;28;20030;-84
2021/09/03 02:43:20;;;;;;;54.08;11.85;;;14.30;99.90;;;;;;5012619;28;20128;-81
2021/09/03 02:45:45;;;;;;;44.83;11.68;;;14.20;99.90;;;;;;4995683;28;20521;-80
2021/09/03 02:48:11;;;;;;;33.88;10.55;;;14.40;99.90;;;;;;4995845;28;20026;-81
2021/09/03 02:50:37;;;;;;;32.30;10.20;;;14.30;99.90;;;;;;5013388;28;20053;-81
2021/09/03 02:53:02;;;;;;;32.65;9.90;;;14.30;99.90;;;;;;5012988;28;20030;-82
2021/09/03 02:55:29;;;;;;;38.13;10.48;;;14.30;99.90;;;;;;5012992;28;20026;-83
2021/09/03 02:57:55;;;;;;;30.30;8.85;;;14.40;99.90;;;;;;5013194;28;20390;-82
2021/09/03 03:00:21;;;;;;;33.97;9.02;;;14.40;99.90;;;;;;5013242;28;20097;-80
2021/09/03 03:02:47;;;;;;;33.40;8.90;;;14.30;99.90;;;;;;5012881;28;20065;-82
2021/09/03 03:05:12;;;;;;;34.42;9.27;;;14.40;99.90;;;;;;5012805;28;20030;-82
2021/09/03 03:07:38;;;;;;;43.75;9.77;;;14.30;99.90;;;;;;4995489;28;20032;-82
2021/09/03 03:10:05;;;;;;;28.95;8.55;;;14.40;99.90;;;;;;5013026;28;20030;-82
2021/09/03 03:12:31;;;;;;;33.60;9.82;;;14.40;99.90;;;;;;4995136;28;20518;-83
2021/09/03 03:14:56;;;;;;;35.08;9.02;;;14.40;99.90;;;;;;4994864;28;20057;-84
2021/09/03 03:17:22;;;;;;;32.22;8.65;;;14.40;99.90;;;;;;5012745;28;20036;-82
2021/09/03 03:19:47;;;;;;;37.45;8.27;;;14.40;99.90;;;;;;5012602;28;20029;-82
2021/09/03 03:22:13;;;;;;;32.20;8.70;;;14.30;99.90;;;;;;5012370;28;20568;-83
2021/09/03 03:24:39;;;;;;;40.13;8.57;;;14.40;99.90;;;;;;4994997;28;20026;-82
2021/09/03 03:27:04;;;;;;;27.13;8.13;;;14.30;99.90;;;;;;4994662;28;20034;-81
2021/09/03 03:29:30;;;;;;;34.33;9.43;;;14.30;99.90;;;;;;4995113;28;20109;-82
2021/09/03 03:31:56;;;;;;;33.30;8.18;;;14.30;99.90;;;;;;4995125;28;20030;-84
2021/09/03 03:34:21;;;;;;;34.40;9.60;;;14.20;99.90;;;;;;5012401;28;20030;-81
2021/09/03 03:36:47;;;;;;;34.65;10.23;;;14.10;99.90;;;;;;4993800;28;20036;-82
2021/09/03 03:39:13;;;;;;;37.47;10.63;;;14.20;99.90;;;;;;4994163;28;20391;-82
2021/09/03 03:41:39;;;;;;;52.13;11.80;;;14.20;99.90;;;;;;5011675;28;20379;-81
2021/09/03 03:44:04;;;;;;;43.97;11.77;;;14.20;99.90;;;;;;5011485;28;20037;-81
2021/09/03 03:46:30;;;;;;;34.10;10.75;;;14.20;99.90;;;;;;4993709;28;20034;-82
2021/09/03 03:48:56;;;;;;;36.05;13.32;;;14.30;99.90;;;;;;5011661;28;20030;-84
2021/09/03 03:51:21;;;;;;;48.63;11.88;;;14.30;99.90;;;;;;5011528;28;20026;-82
2021/09/03 03:53:47;;;;;;;33.03;9.85;;;14.30;99.90;;;;;;5011379;28;20112;-82
2021/09/03 03:56:13;;;;;;;33.72;10.15;;;14.30;99.90;;;;;;5011312;28;20040;-80
2021/09/03 03:58:38;;;;;;;31.23;9.13;;;14.30;99.90;;;;;;4993374;28;20022;-82
2021/09/03 04:01:04;;;;;;;45.20;12.85;;;14.20;99.90;;;;;;5011485;28;20087;-83
2021/09/03 04:03:29;;;;;;;33.08;11.10;;;14.40;99.90;;;;;;5011463;28;20033;-82
2021/09/03 04:05:55;;;;;;;28.55;11.35;;;14.30;99.90;;;;;;5009843;28;20030;-82
2021/09/03 04:08:21;;;;;;;46.83;12.40;;;14.40;99.90;;;;;;5011202;28;20049;-80
2021/09/03 04:10:46;;;;;;;37.65;12.43;;;14.40;99.90;;;;;;4993746;28;20064;-83
2021/09/03 04:13:12;;;;;;;38.95;12.10;;;14.30;99.90;;;;;;5011493;28;20026;-79
2021/09/03 04:15:37;;;;;;;36.17;11.13;;;14.20;99.90;;;;;;5010855;28;20042;-82
2021/09/03 04:18:03;;;;;;;33.65;10.05;;;14.30;99.90;;;;;;5011019;28;20141;-83
2021/09/03 04:20:29;;;;;;;25.00;8.85;;;14.30;99.90;;;;;;5011245;28;20073;-82
2021/09/03 04:22:54;;;;;;;28.75;9.65;;;14.20;99.90;;;;;;4993744;28;20026;-84
2021/09/03 04:25:20;;;;;;;33.53;11.40;;;14.20;99.90;;;;;;5010879;28;20032;-81
2021/09/03 04:27:46;;;;;;;39.50;10.75;;;14.20;99.90;;;;;;5010793;28;20022;-83
2021/09/03 04:30:11;;;;;;;35.10;10.75;;;14.20;99.90;;;;;;5011105;28;20033;-82
2021/09/03 04:32:38;;;;;;;30.25;11.98;;;14.20;99.90;;;;;;4993608;28;20498;-82
2021/09/03 04:35:05;;;;;;;41.27;12.03;;;14.30;99.90;;;;;;4959135;28;1078079;-82
2021/09/03 04:37:30;;;;;;;28.02;11.13;;;14.30;99.90;;;;;;5015922;28;20033;-81
2021/09/03 04:39:56;;;;;;;30.67;12.20;;;14.30;99.90;;;;;;4997841;28;20030;-81
2021/09/03 04:42:22;;;;;;;44.80;14.15;;;14.30;99.90;;;;;;5015795;28;20372;-82
2021/09/03 04:44:47;;;;;;;34.55;13.02;;;14.30;99.90;;;;;;5014310;28;20045;-81
2021/09/03 04:47:13;;;;;;;41.70;13.93;;;14.30;99.90;;;;;;4998051;28;20033;-80
2021/09/03 04:49:38;;;;;;;42.53;14.45;;;14.30;99.90;;;;;;5015377;28;20079;-81
2021/09/03 04:52:04;;;;;;;52.95;17.60;;;14.30;99.90;;;;;;4998014;28;20026;-83
2021/09/03 04:54:30;;;;;;;43.75;16.30;;;14.30;99.90;;;;;;5015332;28;20101;-83
2021/09/03 04:56:55;;;;;;;46.88;16.65;;;14.30;99.90;;;;;;4997777;28;20380;-82
2021/09/03 04:59:21;;;;;;;42.95;16.90;;;14.40;99.90;;;;;;4997629;28;20049;-83
2021/09/03 05:01:46;;;;;;;43.78;16.63;;;14.40;99.90;;;;;;4997905;28;20014;-81
2021/09/03 05:04:12;;;;;;;49.78;18.40;;;14.40;99.90;;;;;;5015225;28;20022;-80
2021/09/03 05:06:37;;;;;;;44.58;18.90;;;14.40;99.90;;;;;;5014041;28;20033;-82
2021/09/03 05:09:03;;;;;;;47.03;18.65;;;14.30;99.90;;;;;;5014977;28;20022;-82
2021/09/03 05:11:29;;;;;;;45.70;17.17;;;14.40;99.90;;;;;;4997624;28;20029;-82
2021/09/03 05:13:54;;;;;;;50.15;17.15;;;14.40;99.90;;;;;;4997439;28;20359;-83
2021/09/03 05:16:20;;;;;;;44.83;15.98;;;14.40;99.90;;;;;;5015035;28;20061;-83
2021/09/03 05:18:45;;;;;;;39.55;16.98;;;14.60;99.90;;;;;;4997529;28;20475;-81
2021/09/03 05:21:11;;;;;;;42.58;16.67;;;14.50;99.90;;;;;;5014741;28;20033;-81
2021/09/03 05:23:37;;;;;;;52.55;17.23;;;14.50;99.90;;;;;;5014946;28;20026;-83
2021/09/03 05:26:03;;;;;;;38.08;16.20;;;14.60;99.90;;;;;;5014784;28;20057;-80
2021/09/03 05:28:29;;;;;;;37.28;17.60;;;14.60;99.90;;;;;;5014920;28;20033;-80
2021/09/03 05:30:55;;;;;;;33.63;15.05;;;14.60;99.90;;;;;;5014652;28;20112;-83
2021/09/03 05:33:21;;;;;;;41.33;15.38;;;14.60;99.90;;;;;;5014774;28;20041;-83
2021/09/03 05:35:47;;;;;;;36.05;15.95;;;14.70;99.90;;;;;;5014362;28;20030;-82
2021/09/03 05:38:13;;;;;;;42.20;15.10;;;14.70;99.90;;;;;;5014765;28;20050;-83
2021/09/03 05:40:38;;;;;;;38.97;15.38;;;14.70;99.90;;;;;;4997027;28;21196;-81
2021/09/03 05:43:04;;;;;;;38.67;15.23;;;14.70;99.90;;;;;;4996997;28;20030;-82
2021/09/03 05:45:33;;;;;;;43.80;15.48;;;14.80;99.90;;;;;;4996408;28;20061;-84
2021/09/03 05:48:02;;;;;;;37.42;14.88;;;14.70;99.90;;;;;;5014562;28;20048;-81
2021/09/03 05:50:28;;;;;;;34.13;15.68;;;14.80;99.90;;;;;;5014600;28;20490;-81
2021/09/03 05:52:54;;;;;;;42.65;14.02;;;14.70;99.90;;;;;;5014206;28;20057;-81
2021/09/03 05:55:19;;;;;;;39.33;14.45;;;14.80;99.90;;;;;;4996555;28;20087;-82
2021/09/03 05:57:45;;;;;;;32.20;12.45;;;14.80;99.90;;;;;;4996889;28;20113;-81
2021/09/03 06:00:11;;;;;;;35.83;14.05;;;14.80;99.90;;;;;;4997170;28;20085;-81
2021/09/03 06:02:37;;;;;;;35.40;13.82;;;14.80;99.90;;;;;;5011857;28;20368;-82
2021/09/03 06:05:03;;;;;;;34.13;14.50;;;14.80;99.90;;;;;;4996148;28;20029;-81
2021/09/03 06:07:29;;;;;;;47.95;13.43;;;14.90;99.90;;;;;;4996285;28;20018;-83
2021/09/03 06:09:54;;;;;;;37.08;13.10;;;14.90;99.90;;;;;;5008886;28;20049;-81
2021/09/03 06:12:20;;;;;;;34.88;12.60;;;14.80;99.90;;;;;;5009561;28;20029;-81
2021/09/03 06:14:46;;;;;;;44.03;12.82;;;15.00;99.90;;;;;;5016103;28;20022;-83
2021/09/03 06:17:13;;;;;;;36.22;12.77;;;14.90;99.90;;;;;;5023799;28;20030;-80
2021/09/03 06:19:38;;;;;;;35.95;12.85;;;14.90;99.90;;;;;;5016613;28;20498;-82
2021/09/03 06:22:04;;;;;;;46.42;12.65;;;15.00;99.90;;;;;;5027234;28;20117;-82
2021/09/03 06:24:30;;;;;;;36.08;12.27;;;15.10;99.90;;;;;;5004912;28;20612;-81
2021/09/03 06:27:02;;;;;;;40.72;11.50;;;15.10;99.90;;;;;;4983663;28;20021;-82
2021/09/03 06:29:43;;;;;;;36.67;12.55;;;15.30;99.90;;;;;;5009140;28;20105;-82
2021/09/03 06:32:18;;;;;;;35.83;12.10;;;15.30;99.90;;;;;;5009424;28;20029;-81
2021/09/03 06:34:45;;;;;;;29.45;11.70;;;15.40;99.90;;;;;;5008452;28;20033;-83
2021/09/03 06:37:11;;;;;;;29.65;11.85;;;15.50;99.90;;;;;;5009120;28;20029;-81
2021/09/03 06:39:37;;;;;;;41.65;15.23;;;15.60;99.90;;;;;;5010194;28;20019;-81
2021/09/03 06:42:04;;;;;;;33.80;11.98;;;15.50;99.90;;;;;;5009415;28;20033;-81
2021/09/03 06:44:30;;;;;;;31.27;12.00;;;15.70;99.90;;;;;;5008640;28;20105;-78
2021/09/03 06:46:55;;;;;;;32.10;11.43;;;15.60;99.90;;;;;;5008961;28;20153;-80
2021/09/03 06:49:21;;;;;;;28.27;11.32;;;15.60;99.90;;;;;;5013566;28;20040;-79
2021/09/03 06:51:46;;;;;;;32.63;12.98;;;15.50;99.90;;;;;;5007722;28;20113;-80
2021/09/03 06:54:12;;;;;;;30.95;12.10;;;15.60;99.90;;;;;;5008431;28;20037;-79
2021/09/03 06:56:38;;;;;;;32.55;12.57;;;15.60;99.90;;;;;;5009558;28;20037;-81
2021/09/03 06:59:04;;;;;;;29.85;11.70;;;15.60;99.90;;;;;;5008833;28;20053;-81
2021/09/03 07:01:30;;;;;;;42.63;12.13;;;15.80;99.90;;;;;;5008889;28;20026;-81
2021/09/03 07:03:55;;;;;;;31.48;11.07;;;16.00;99.90;;;;;;5008161;28;20045;-82
2021/09/03 07:06:21;;;;;;;28.75;11.32;;;16.10;99.90;;;;;;5008426;28;20064;-81
2021/09/03 07:08:46;;;;;;;25.92;11.15;;;16.30;99.90;;;;;;5009056;28;20026;-80
2021/09/03 07:11:12;;;;;;;40.63;12.20;;;16.30;99.90;;;;;;5016196;28;20033;-80
2021/09/03 07:13:38;;;;;;;39.63;12.95;;;16.30;99.90;;;;;;5007780;28;20022;-80
2021/09/03 07:16:04;;;;;;;34.55;11.40;;;16.20;99.90;;;;;;5009514;28;20030;-79
2021/09/03 07:18:30;;;;;;;39.40;13.20;;;15.90;99.90;;;;;;5019767;28;20467;-80
2021/09/03 07:20:56;;;;;;;38.38;12.57;;;16.00;99.90;;;;;;4998365;28;20053;-81
2021/09/03 07:23:22;;;;;;;28.13;11.95;;;16.10;99.90;;;;;;5010131;28;20026;-80
2021/09/03 07:25:48;;;;;;;46.75;13.07;;;16.40;99.90;;;;;;5019153;28;20048;-81
2021/09/03 07:28:13;;;;;;;38.33;12.93;;;16.50;99.90;;;;;;5009107;28;20034;-81
2021/09/03 07:30:39;;;;;;;30.58;12.93;;;16.60;99.90;;;;;;5009041;28;20057;-79
2021/09/03 07:33:04;;;;;;;26.67;11.98;;;16.90;99.90;;;;;;5008709;28;20038;-81
2021/09/03 07:35:30;;;;;;;29.00;11.75;;;17.00;99.90;;;;;;5007706;28;20030;-81
2021/09/03 07:37:56;;;;;;;25.83;11.38;;;16.80;99.90;;;;;;5016999;28;20029;-83
2021/09/03 07:40:22;;;;;;;28.35;11.57;;;16.90;99.90;;;;;;5003381;28;20026;-82
2021/09/03 07:42:48;;;;;;;28.77;11.13;;;16.80;99.90;;;;;;5008356;28;20513;-80
2021/09/03 07:45:14;;;;;;;35.92;11.60;;;16.80;99.90;;;;;;5007433;28;20055;-81
2021/09/03 07:47:40;;;;;;;36.38;12.02;;;16.90;99.90;;;;;;5007806;28;20116;-81
2021/09/03 07:50:06;;;;;;;37.58;13.05;;;16.80;99.90;;;;;;5016769;28;20026;-81
2021/09/03 07:52:32;;;;;;;34.05;11.95;;;16.70;99.90;;;;;;5008483;28;20030;-81
2021/09/03 07:54:58;;;;;;;30.00;11.52;;;16.60;99.90;;;;;;5021874;28;20025;-81
2021/09/03 07:57:23;;;;;;;32.45;10.55;;;16.70;99.90;;;;;;5008363;28;20515;-82
2021/09/03 07:59:49;;;;;;;32.33;11.50;;;16.70;99.90;;;;;;5008915;28;20121;-83
2021/09/03 08:02:17;;;;;;;33.15;11.63;;;16.60;99.90;;;;;;5008802;28;20037;-83
2021/09/03 08:04:43;;;;;;;43.45;12.55;;;16.70;99.90;;;;;;5008651;28;20390;-82
2021/09/03 08:07:08;;;;;;;34.65;12.88;;;17.10;99.90;;;;;;5010160;28;20029;-79
2021/09/03 08:09:34;;;;;;;29.25;12.27;;;17.40;99.90;;;;;;5008924;28;20056;-78
2021/09/03 08:11:59;;;;;;;27.27;11.65;;;17.50;99.90;;;;;;5008768;28;20025;-79
2021/09/03 08:14:25;;;;;;;31.58;13.20;;;17.60;99.90;;;;;;5022667;28;20026;-78
2021/09/03 08:16:51;;;;;;;30.55;12.23;;;17.70;99.90;;;;;;5019714;28;20029;-79
2021/09/03 08:19:16;;;;;;;34.85;13.38;;;17.80;99.90;;;;;;5013377;28;20152;-79
2021/09/03 08:21:42;;;;;;;32.05;13.07;;;17.70;99.90;;;;;;5008783;28;20045;-79
2021/09/03 08:24:08;;;;;;;42.33;12.30;;;17.80;99.90;;;;;;5008550;28;20498;-79
2021/09/03 08:26:34;;;;;;;37.42;11.60;;;17.90;99.90;;;;;;5014141;28;20061;-80
2021/09/03 08:28:59;;;;;;;39.15;12.63;;;17.80;99.90;;;;;;5015576;28;20553;-84
2021/09/03 08:31:25;;;;;;;31.55;11.98;;;17.80;99.90;;;;;;4991284;28;20051;-82
2021/09/03 08:33:51;;;;;;;40.88;13.13;;;17.80;99.90;;;;;;5014505;28;20057;-82
2021/09/03 08:36:17;;;;;;;39.67;12.15;;;17.80;99.90;;;;;;5022623;28;20073;-82
2021/09/03 08:38:43;;;;;;;36.55;11.80;;;18.00;99.90;;;;;;5008066;28;20057;-80
2021/09/03 08:41:09;;;;;;;38.65;13.95;;;18.00;99.90;;;;;;5008762;28;20454;-83
2021/09/03 08:43:34;;;;;;;29.08;13.35;;;18.20;99.90;;;;;;4991591;28;20022;-84
2021/09/03 08:46:00;;;;;;;37.78;12.65;;;17.90;99.90;;;;;;5022987;28;20036;-83
2021/09/03 08:48:26;;;;;;;30.33;14.63;;;18.10;99.90;;;;;;5015599;28;20064;-85
2021/09/03 08:50:54;;;;;;;35.45;13.27;;;18.30;99.90;;;;;;4997285;28;20509;-84
2021/09/03 08:53:22;;;;;;;32.72;12.75;;;18.70;99.90;;;;;;5008578;28;20410;-80
2021/09/03 08:55:50;;;;;;;36.90;12.63;;;19.00;99.90;;;;;;5012891;28;20092;-80
2021/09/03 08:58:16;;;;;;;27.42;12.32;;;19.20;99.90;;;;;;5006674;28;20030;-81
2021/09/03 09:00:43;;;;;;;24.42;11.95;;;19.20;99.90;;;;;;5009123;28;20036;-79
2021/09/03 09:03:14;;;;;;;23.20;11.65;;;18.90;99.90;;;;;;4992595;28;20018;-79
2021/09/03 09:05:56;;;;;;;32.85;13.00;;;18.60;99.90;;;;;;5008166;28;20113;-79
2021/09/03 09:08:27;;;;;;;30.92;12.52;;;18.70;99.90;;;;;;5009016;28;20402;-79
2021/09/03 09:11:04;;;;;;;25.42;9.85;;;18.80;99.90;;;;;;4993814;28;20494;-77
2021/09/03 09:13:32;;;;;;;26.88;10.40;;;18.60;99.90;;;;;;4993847;28;20068;-76
2021/09/03 09:16:08;;;;;;;35.15;10.50;;;18.60;99.90;;;;;;5011182;28;20025;-79
2021/09/03 09:18:39;;;;;;;26.95;10.07;;;18.50;99.90;;;;;;5011129;28;20034;-79
2021/09/03 09:21:14;;;;;;;23.23;8.82;;;18.40;99.90;;;;;;4997662;28;20025;-78
2021/09/03 09:23:46;;;;;;;27.17;10.05;;;18.60;99.90;;;;;;4997406;28;20018;-78
2021/09/03 09:26:13;;;;;;;18.67;8.45;;;18.90;99.90;;;;;;4997242;28;20033;-78
2021/09/03 09:28:39;;;;;;;28.65;8.70;;;18.90;99.90;;;;;;5014711;28;20029;-78
2021/09/03 09:31:05;;;;;;;27.85;8.95;;;19.00;99.90;;;;;;5014977;28;20022;-78
2021/09/03 09:33:31;;;;;;;20.38;8.52;;;19.20;99.90;;;;;;4997299;28;20022;-79
2021/09/03 09:35:59;;;;;;;24.65;8.55;;;18.90;99.90;;;;;;4996617;28;20099;-78
2021/09/03 09:38:28;;;;;;;28.50;8.90;;;19.10;99.90;;;;;;4997188;28;20026;-78
2021/09/03 09:40:58;;;;;;;21.55;8.38;;;19.40;99.90;;;;;;5014201;28;20088;-78
2021/09/03 09:43:34;;;;;;;28.20;8.10;;;19.50;99.90;;;;;;5014589;28;20029;-78
2021/09/03 09:46:10;;;;;;;25.63;8.18;;;19.60;99.90;;;;;;4996806;28;20425;-78
2021/09/03 09:48:51;;;;;;;29.60;8.82;;;19.80;99.90;;;;;;5014482;28;20033;-78
2021/09/03 09:51:24;;;;;;;27.85;8.75;;;19.50;99.90;;;;;;4996442;28;20072;-78
2021/09/03 09:54:09;;;;;;;23.37;7.57;;;19.20;99.90;;;;;;4996277;28;20045;-78
2021/09/03 09:56:40;;;;;;;21.13;7.60;;;19.60;99.90;;;;;;5014200;28;20026;-82
2021/09/03 09:59:08;;;;;;;24.58;7.30;;;19.60;99.90;;;;;;4996889;28;20026;-82
2021/09/03 10:01:36;;;;;;;32.50;7.30;;;19.70;99.90;;;;;;4996007;28;20531;-81
2021/09/03 10:04:07;;;;;;;24.88;6.50;;;19.40;99.90;;;;;;5014151;28;20072;-81
2021/09/03 10:06:35;;;;;;;25.65;6.68;;;19.70;99.90;;;;;;5014199;28;20033;-80
2021/09/03 10:09:01;;;;;;;17.73;6.85;;;19.70;99.90;;;;;;4996583;28;20033;-82
2021/09/03 10:11:26;;;;;;;29.48;7.50;;;19.60;99.90;;;;;;5013646;28;20037;-82
2021/09/03 10:13:54;;;;;;;18.33;6.53;;;19.30;99.90;;;;;;4996296;28;20068;-81
2021/09/03 10:16:20;;;;;;;24.15;5.82;;;19.30;99.90;;;;;;4996360;28;20029;-79
2021/09/03 10:18:48;;;;;;;20.33;6.53;;;19.20;99.90;;;;;;5013922;28;20018;-80
2021/09/03 10:21:14;;;;;;;16.35;7.18;;;19.50;99.90;;;;;;4996058;28;20053;-80
2021/09/03 10:24:14;;;;;;;11.43;5.32;;;20.00;99.90;;;;;;4995808;28;20407;-80
2021/09/03 10:26:47;;;;;;;19.30;6.50;;;20.30;99.90;;;;;;4996240;28;20095;-80
2021/09/03 10:29:22;;;;;;;21.98;6.28;;;20.20;99.90;;;;;;5012503;28;20561;-80
2021/09/03 10:32:10;;;;;;;17.42;5.82;;;19.80;99.90;;;;;;4995034;28;20029;-79
2021/09/03 10:34:39;;;;;;;18.63;6.65;;;19.80;99.90;;;;;;4995846;28;20037;-79
2021/09/03 10:37:14;;;;;;;22.50;6.47;;;19.80;99.90;;;;;;4995859;28;20030;-80
2021/09/03 10:39:55;;;;;;;22.70;7.68;;;19.90;99.90;;;;;;4995993;28;20076;-80
2021/09/03 10:45:04;;;;;;;20.10;6.30;;;20.20;99.90;;;;;;4993871;28;20044;-80
2021/09/03 10:47:45;;;;;;;20.95;7.90;;;20.30;99.90;;;;;;4994099;28;20050;-81
2021/09/03 10:50:26;;;;;;;30.60;7.20;;;20.40;99.90;;;;;;4992863;28;20030;-81
2021/09/03 10:53:04;;;;;;;30.15;7.72;;;20.40;99.90;;;;;;4976460;28;20034;-79
2021/09/03 10:55:49;;;;;;;22.85;6.90;;;20.30;99.90;;;;;;5013043;28;20105;-78
2021/09/03 10:58:36;;;;;;;23.70;7.13;;;20.50;99.90;;;;;;4995148;28;20029;-77
2021/09/03 11:01:11;;;;;;;25.63;6.25;;;20.10;99.90;;;;;;5013561;28;20026;-77
2021/09/03 11:03:56;;;;;;;38.03;6.57;;;19.90;99.90;;;;;;5001235;28;20026;-78
2021/09/03 11:06:24;;;;;;;22.05;6.43;;;19.80;99.90;;;;;;5008827;28;20033;-78
2021/09/03 11:08:51;;;;;;;19.10;6.55;;;19.80;99.90;;;;;;5015702;28;20172;-78
2021/09/03 11:11:35;;;;;;;20.13;5.38;;;20.00;99.90;;;;;;5014310;28;20026;-78
2021/09/03 11:14:05;;;;;;;;;;;20.30;99.90;;;;;;4995672;28;20026;-78
2021/09/03 11:16:46;;;;;;;24.55;5.88;;;20.00;99.90;;;;;;5010790;28;20545;-80
2021/09/03 11:19:20;;;;;;;23.70;6.13;;;20.10;99.90;;;;;;5001688;28;20052;-80
2021/09/03 11:22:22;;;;;;;26.73;6.55;;;20.50;99.90;;;;;;5004129;28;20080;-81
2021/09/03 11:24:50;;;;;;;14.02;5.15;;;20.30;99.90;;;;;;5002760;28;20030;-78
2021/09/03 11:27:19;;;;;;;25.88;6.43;;;20.00;99.90;;;;;;5005311;28;20030;-79
2021/09/03 11:29:53;;;;;;;22.23;7.13;;;19.80;99.90;;;;;;5011685;28;20042;-80
2021/09/03 11:32:21;;;;;;;24.77;6.32;;;20.10;99.90;;;;;;5001103;28;20021;-80
2021/09/03 11:35:06;;;;;;;22.50;5.35;;;20.10;99.90;;;;;;5011033;28;20030;-79
2021/09/03 11:37:34;;;;;;;18.02;5.35;;;20.30;99.90;;;;;;4995238;28;20034;-80
2021/09/03 11:40:07;;;;;;;18.65;5.50;;;20.60;99.90;;;;;;4994839;28;20025;-80
2021/09/03 11:42:35;;;;;;;24.35;5.90;;;20.50;99.90;;;;;;4994882;28;20117;-81
2021/09/03 11:45:06;;;;;;;15.10;5.78;;;20.60;99.90;;;;;;4994494;28;20367;-79
2021/09/03 11:47:38;;;;;;;19.92;6.72;;;20.60;99.90;;;;;;4993255;28;20061;-79
2021/09/03 11:50:12;;;;;;;31.85;5.55;;;20.60;99.90;;;;;;5012312;28;20109;-80
2021/09/03 11:52:39;;;;;;;21.23;5.45;;;20.60;99.90;;;;;;5012536;28;20041;-80
2021/09/03 11:55:07;;;;;;;15.40;6.53;;;20.50;99.90;;;;;;4994098;28;20025;-81
2021/09/03 11:57:51;;;;;;;18.63;5.20;;;20.20;99.90;;;;;;4994652;28;20025;-77
2021/09/03 12:00:23;;;;;;;23.73;5.55;;;20.40;99.90;;;;;;4994559;28;20513;-78
2021/09/03 12:02:50;;;;;;;22.38;5.32;;;20.70;99.90;;;;;;5012139;28;20036;-77
2021/09/03 12:05:17;;;;;;;24.60;5.53;;;20.70;99.90;;;;;;5011846;28;20076;-78
2021/09/03 12:08:01;;;;;;;20.17;5.65;;;21.30;99.90;;;;;;5011915;28;20025;-78
2021/09/03 12:10:39;;;;;;;16.65;5.13;;;21.40;99.90;;;;;;4994581;28;20029;-78
2021/09/03 12:13:14;;;;;;;21.98;6.78;;;21.50;99.90;;;;;;4994473;28;20018;-77
2021/09/03 12:15:43;;;;;;;18.85;5.32;;;21.20;99.90;;;;;;4993897;28;20122;-77
2021/09/03 12:18:22;;;;;;;20.13;5.82;;;21.30;99.90;;;;;;5011764;28;20112;-78
2021/09/03 12:21:09;;;;;;;16.30;4.78;;;22.10;99.90;;;;;;5012021;28;20026;-78
2021/09/03 12:23:39;;;;;;;18.40;4.22;;;23.00;99.90;;;;;;4997595;28;20045;-78
2021/09/03 12:26:16;;;;;;;19.67;5.10;;;22.80;99.90;;;;;;5011741;28;20029;-79
2021/09/03 12:28:47;;;;;;;17.63;4.45;;;22.40;99.90;;;;;;4994356;28;20033;-78
2021/09/03 12:31:19;;;;;;;23.08;5.05;;;22.30;99.90;;;;;;4994397;28;20021;-78
2021/09/03 12:33:53;;;;;;;17.85;4.10;;;22.50;99.90;;;;;;4993956;28;20030;-78
2021/09/03 12:36:21;;;;;;;24.17;5.38;;;22.40;99.90;;;;;;5011323;28;20026;-78